Geetbets, Belgium
Current Conditions -  °F | °C
As of 11:34 PM on Wednesday 22 Oct 2014 (Local Time) from EBDT Reporting Station
Broken Clouds Broken Clouds  
Wind Chill: 45°   Ceiling: 5000
Heat Index: 48°   Visibility: 4mi
Dew Point: 43°   Wind: 7mph
Humidity: 82%   Direction: 240°WSW
Pressure: 30.21"   Gusts: NA
Location:  50.89°N, 5.11°E
Report Text: EBDT 222134Z AUTO 24006KT 7000 BKN050/// 09/06 Q1023 WHT
Loading
Personal Weather Stations






























Interactive Weather Map
Tropical Storm Tracking
New forecast layout! Learn more

10-Day Weather Forecast

Advertisements
Track Severe Weather on mobile